sensor_id;sensor_type;location;lat;lon;timestamp;pressure;altitude;pressure_sealevel;temperature;humidity
4167;BME280;2097;51.104;7.150;2022-10-31T00:01:28;99352.56;;;11.93;100.00
4167;BME280;2097;51.104;7.150;2022-10-31T00:03:55;99353.47;;;11.92;100.00
4167;BME280;2097;51.104;7.150;2022-10-31T00:06:22;99360.53;;;11.90;100.00
4167;BME280;2097;51.104;7.150;2022-10-31T00:08:52;99343.72;;;11.80;100.00
4167;BME280;2097;51.104;7.150;2022-10-31T00:11:20;99359.00;;;11.86;100.00
4167;BME280;2097;51.104;7.150;2022-10-31T00:13:47;99360.84;;;11.84;100.00
4167;BME280;2097;51.104;7.150;2022-10-31T00:16:14;99361.00;;;11.81;100.00
4167;BME280;2097;51.104;7.150;2022-10-31T00:18:41;99350.00;;;11.76;100.00
4167;BME280;2097;51.104;7.150;2022-10-31T00:21:08;99358.91;;;11.72;100.00
4167;BME280;2097;51.104;7.150;2022-10-31T00:23:35;99357.38;;;11.68;100.00
4167;BME280;2097;51.104;7.150;2022-10-31T00:26:02;99351.50;;;11.64;100.00
4167;BME280;2097;51.104;7.150;2022-10-31T00:28:31;99355.13;;;11.62;100.00
4167;BME280;2097;51.104;7.150;2022-10-31T00:30:59;99353.66;;;11.56;100.00
4167;BME280;2097;51.104;7.150;2022-10-31T00:33:26;99352.09;;;11.54;100.00
4167;BME280;2097;51.104;7.150;2022-10-31T00:35:53;99349.78;;;11.48;100.00
4167;BME280;2097;51.104;7.150;2022-10-31T00:38:19;99347.25;;;11.46;100.00
4167;BME280;2097;51.104;7.150;2022-10-31T00:40:46;99347.31;;;11.45;100.00
4167;BME280;2097;51.104;7.150;2022-10-31T00:43:13;99344.81;;;11.43;100.00
4167;BME280;2097;51.104;7.150;2022-10-31T00:45:42;99345.66;;;11.44;100.00
4167;BME280;2097;51.104;7.150;2022-10-31T00:48:09;99347.44;;;11.43;100.00
4167;BME280;2097;51.104;7.150;2022-10-31T00:50:36;99336.16;;;11.43;100.00
4167;BME280;2097;51.104;7.150;2022-10-31T00:53:02;99341.22;;;11.46;100.00
4167;BME280;2097;51.104;7.150;2022-10-31T00:55:29;99348.09;;;11.47;100.00
4167;BME280;2097;51.104;7.150;2022-10-31T00:57:56;99351.50;;;11.47;100.00
4167;BME280;2097;51.104;7.150;2022-10-31T01:00:23;99358.38;;;11.48;100.00
4167;BME280;2097;51.104;7.150;2022-10-31T01:02:51;99360.06;;;11.49;100.00
4167;BME280;2097;51.104;7.150;2022-10-31T01:05:18;99368.06;;;11.46;100.00
4167;BME280;2097;51.104;7.150;2022-10-31T01:07:45;99372.56;;;11.43;100.00
4167;BME280;2097;51.104;7.150;2022-10-31T01:10:12;99375.41;;;11.38;100.00
4167;BME280;2097;51.104;7.150;2022-10-31T01:12:40;99386.00;;;11.34;100.00
4167;BME280;2097;51.104;7.150;2022-10-31T01:15:09;99374.84;;;11.32;100.00
4167;BME280;2097;51.104;7.150;2022-10-31T01:17:36;99372.34;;;11.31;100.00
4167;BME280;2097;51.104;7.150;2022-10-31T01:20:07;99379.28;;;11.30;100.00
4167;BME280;2097;51.104;7.150;2022-10-31T01:22:34;99371.69;;;11.27;100.00
4167;BME280;2097;51.104;7.150;2022-10-31T01:25:01;99392.47;;;11.27;100.00
4167;BME280;2097;51.104;7.150;2022-10-31T01:27:28;99369.75;;;11.31;100.00
4167;BME280;2097;51.104;7.150;2022-10-31T01:29:55;99363.47;;;11.34;100.00
4167;BME280;2097;51.104;7.150;2022-10-31T01:32:21;99359.81;;;11.38;100.00
4167;BME280;2097;51.104;7.150;2022-10-31T01:34:48;99341.84;;;11.34;100.00
4167;BME280;2097;51.104;7.150;2022-10-31T01:37:16;99349.88;;;11.46;100.00
4167;BME280;2097;51.104;7.150;2022-10-31T01:39:43;99342.78;;;11.48;100.00
4167;BME280;2097;51.104;7.150;2022-10-31T01:42:16;99336.69;;;11.49;100.00
4167;BME280;2097;51.104;7.150;2022-10-31T01:44:55;99336.88;;;11.46;100.00
4167;BME280;2097;51.104;7.150;2022-10-31T01:47:31;99209.81;;;10.60;100.00
4167;BME280;2097;51.104;7.150;2022-10-31T01:50:01;99338.78;;;11.43;100.00
4167;BME280;2097;51.104;7.150;2022-10-31T01:52:33;99333.66;;;11.41;100.00
4167;BME280;2097;51.104;7.150;2022-10-31T01:55:04;99314.34;;;11.30;100.00
4167;BME280;2097;51.104;7.150;2022-10-31T01:57:33;99325.44;;;11.33;100.00
4167;BME280;2097;51.104;7.150;2022-10-31T02:00:06;99319.72;;;11.27;100.00
4167;BME280;2097;51.104;7.150;2022-10-31T02:02:33;99316.72;;;11.18;100.00
4167;BME280;2097;51.104;7.150;2022-10-31T02:05:02;99319.63;;;11.12;100.00
4167;BME280;2097;51.104;7.150;2022-10-31T02:07:35;99313.94;;;11.05;100.00
4167;BME280;2097;51.104;7.150;2022-10-31T02:10:04;99315.75;;;11.03;100.00
4167;BME280;2097;51.104;7.150;2022-10-31T02:12:31;99314.25;;;10.99;100.00
4167;BME280;2097;51.104;7.150;2022-10-31T02:14:59;99302.31;;;10.95;100.00
4167;BME280;2097;51.104;7.150;2022-10-31T02:17:26;99300.81;;;10.91;100.00
4167;BME280;2097;51.104;7.150;2022-10-31T02:20:00;99305.31;;;10.88;100.00
4167;BME280;2097;51.104;7.150;2022-10-31T02:22:39;99315.03;;;10.84;100.00
4167;BME280;2097;51.104;7.150;2022-10-31T02:25:21;99303.88;;;10.82;100.00
4167;BME280;2097;51.104;7.150;2022-10-31T02:28:10;99304.81;;;10.81;100.00
4167;BME280;2097;51.104;7.150;2022-10-31T02:30:55;99304.94;;;10.78;100.00
4167;BME280;2097;51.104;7.150;2022-10-31T02:33:25;99308.63;;;10.74;100.00
4167;BME280;2097;51.104;7.150;2022-10-31T02:35:59;99168.94;;;9.81;100.00
4167;BME280;2097;51.104;7.150;2022-10-31T02:38:38;99312.28;;;10.70;100.00
4167;BME280;2097;51.104;7.150;2022-10-31T02:41:11;99313.13;;;10.71;100.00
4167;BME280;2097;51.104;7.150;2022-10-31T02:43:49;99325.41;;;10.67;100.00
4167;BME280;2097;51.104;7.150;2022-10-31T02:46:25;99333.34;;;10.64;100.00
4167;BME280;2097;51.104;7.150;2022-10-31T02:48:59;99330.84;;;10.63;100.00
4167;BME280;2097;51.104;7.150;2022-10-31T02:51:27;99329.97;;;10.62;100.00
4167;BME280;2097;51.104;7.150;2022-10-31T02:53:54;99330.97;;;10.60;100.00
4167;BME280;2097;51.104;7.150;2022-10-31T02:56:21;99325.09;;;10.56;100.00
4167;BME280;2097;51.104;7.150;2022-10-31T02:58:50;99324.34;;;10.54;100.00
4167;BME280;2097;51.104;7.150;2022-10-31T03:01:42;99321.91;;;10.51;100.00
4167;BME280;2097;51.104;7.150;2022-10-31T03:04:35;99337.31;;;10.54;100.00
4167;BME280;2097;51.104;7.150;2022-10-31T03:07:11;99340.84;;;10.53;100.00
4167;BME280;2097;51.104;7.150;2022-10-31T03:09:45;99334.09;;;10.49;100.00
4167;BME280;2097;51.104;7.150;2022-10-31T03:12:16;99335.78;;;10.50;100.00
4167;BME280;2097;51.104;7.150;2022-10-31T03:14:52;99346.16;;;10.50;100.00
4167;BME280;2097;51.104;7.150;2022-10-31T03:17:24;99337.63;;;10.48;100.00
4167;BME280;2097;51.104;7.150;2022-10-31T03:19:54;99340.06;;;10.51;100.00
4167;BME280;2097;51.104;7.150;2022-10-31T03:22:23;99333.03;;;10.53;100.00
4167;BME280;2097;51.104;7.150;2022-10-31T03:24:51;99332.97;;;10.55;100.00
4167;BME280;2097;51.104;7.150;2022-10-31T03:27:23;99344.03;;;10.58;100.00
4167;BME280;2097;51.104;7.150;2022-10-31T03:29:53;99322.72;;;10.52;100.00
4167;BME280;2097;51.104;7.150;2022-10-31T03:32:25;99340.22;;;10.65;100.00
4167;BME280;2097;51.104;7.150;2022-10-31T03:34:56;99262.34;;;10.15;100.00
4167;BME280;2097;51.104;7.150;2022-10-31T03:37:24;99340.06;;;10.68;100.00
4167;BME280;2097;51.104;7.150;2022-10-31T03:39:55;99333.97;;;10.69;100.00
4167;BME280;2097;51.104;7.150;2022-10-31T03:42:25;99334.72;;;10.71;100.00
4167;BME280;2097;51.104;7.150;2022-10-31T03:44:55;99338.09;;;10.73;100.00
4167;BME280;2097;51.104;7.150;2022-10-31T03:47:25;99332.91;;;10.73;100.00
4167;BME280;2097;51.104;7.150;2022-10-31T03:49:53;99325.97;;;10.74;100.00
4167;BME280;2097;51.104;7.150;2022-10-31T03:52:25;99341.59;;;10.72;100.00
4167;BME280;2097;51.104;7.150;2022-10-31T03:54:55;99322.66;;;10.70;100.00
4167;BME280;2097;51.104;7.150;2022-10-31T03:57:27;99324.63;;;10.65;100.00
4167;BME280;2097;51.104;7.150;2022-10-31T03:59:57;99330.84;;;10.63;100.00
4167;BME280;2097;51.104;7.150;2022-10-31T04:02:30;99339.59;;;10.60;100.00
4167;BME280;2097;51.104;7.150;2022-10-31T04:04:59;99334.34;;;10.62;100.00
4167;BME280;2097;51.104;7.150;2022-10-31T04:07:28;99336.84;;;10.63;100.00
4167;BME280;2097;51.104;7.150;2022-10-31T04:09:57;99333.34;;;10.64;100.00
4167;BME280;2097;51.104;7.150;2022-10-31T04:12:26;99324.72;;;10.64;100.00
4167;BME280;2097;51.104;7.150;2022-10-31T04:14:58;99319.44;;;10.65;100.00
4167;BME280;2097;51.104;7.150;2022-10-31T04:17:29;99295.88;;;10.36;100.00
4167;BME280;2097;51.104;7.150;2022-10-31T04:19:59;99319.25;;;10.70;100.00
4167;BME280;2097;51.104;7.150;2022-10-31T04:22:26;99326.78;;;10.74;100.00
4167;BME280;2097;51.104;7.150;2022-10-31T04:24:52;99319.66;;;10.78;100.00
4167;BME280;2097;51.104;7.150;2022-10-31T04:27:19;99321.19;;;10.82;100.00
4167;BME280;2097;51.104;7.150;2022-10-31T04:29:46;99321.00;;;10.86;100.00
4167;BME280;2097;51.104;7.150;2022-10-31T04:32:13;99321.66;;;10.90;100.00
4167;BME280;2097;51.104;7.150;2022-10-31T04:34:41;99318.09;;;10.92;100.00
4167;BME280;2097;51.104;7.150;2022-10-31T04:37:08;99309.34;;;10.93;100.00
4167;BME280;2097;51.104;7.150;2022-10-31T04:39:34;99313.63;;;10.94;100.00
4167;BME280;2097;51.104;7.150;2022-10-31T04:42:01;99310.28;;;10.92;100.00
4167;BME280;2097;51.104;7.150;2022-10-31T04:44:28;99302.56;;;10.91;100.00
4167;BME280;2097;51.104;7.150;2022-10-31T04:46:54;99314.88;;;10.87;100.00
4167;BME280;2097;51.104;7.150;2022-10-31T04:49:21;99312.44;;;10.84;100.00
4167;BME280;2097;51.104;7.150;2022-10-31T04:51:49;99303.94;;;10.81;100.00
4167;BME280;2097;51.104;7.150;2022-10-31T04:54:16;99308.00;;;10.86;100.00
4167;BME280;2097;51.104;7.150;2022-10-31T04:56:42;99307.69;;;10.92;100.00
4167;BME280;2097;51.104;7.150;2022-10-31T04:59:09;99314.25;;;10.99;100.00
4167;BME280;2097;51.104;7.150;2022-10-31T05:01:36;99307.81;;;11.06;100.00
4167;BME280;2097;51.104;7.150;2022-10-31T05:04:03;99298.94;;;11.10;100.00
4167;BME280;2097;51.104;7.150;2022-10-31T05:06:29;99293.50;;;11.15;100.00
4167;BME280;2097;51.104;7.150;2022-10-31T05:08:58;99296.03;;;11.16;100.00
4167;BME280;2097;51.104;7.150;2022-10-31T05:11:24;99292.38;;;11.20;100.00
4167;BME280;2097;51.104;7.150;2022-10-31T05:13:51;99280.97;;;11.23;100.00
4167;BME280;2097;51.104;7.150;2022-10-31T05:16:18;99275.53;;;11.27;100.00
4167;BME280;2097;51.104;7.150;2022-10-31T05:18:44;99276.06;;;11.33;100.00
4167;BME280;2097;51.104;7.150;2022-10-31T05:21:11;99280.06;;;11.39;100.00
4167;BME280;2097;51.104;7.150;2022-10-31T05:23:38;99279.00;;;11.43;100.00
4167;BME280;2097;51.104;7.150;2022-10-31T05:26:06;99271.03;;;11.46;100.00
4167;BME280;2097;51.104;7.150;2022-10-31T05:28:32;99263.91;;;11.49;100.00
4167;BME280;2097;51.104;7.150;2022-10-31T05:30:59;99258.69;;;11.49;100.00
4167;BME280;2097;51.104;7.150;2022-10-31T05:33:26;99257.88;;;11.49;100.00
4167;BME280;2097;51.104;7.150;2022-10-31T05:35:52;99265.84;;;11.46;100.00
4167;BME280;2097;51.104;7.150;2022-10-31T05:38:19;99259.97;;;11.42;100.00
4167;BME280;2097;51.104;7.150;2022-10-31T05:40:46;99260.13;;;11.39;100.00
4167;BME280;2097;51.104;7.150;2022-10-31T05:43:14;99266.41;;;11.35;100.00
4167;BME280;2097;51.104;7.150;2022-10-31T05:45:41;99269.09;;;11.34;100.00
4167;BME280;2097;51.104;7.150;2022-10-31T05:48:08;99269.25;;;11.31;100.00
4167;BME280;2097;51.104;7.150;2022-10-31T05:50:34;99264.22;;;11.28;100.00
4167;BME280;2097;51.104;7.150;2022-10-31T05:53:05;99259.25;;;11.24;100.00
4167;BME280;2097;51.104;7.150;2022-10-31T05:55:32;99268.91;;;11.22;100.00
4167;BME280;2097;51.104;7.150;2022-10-31T05:57:59;99256.97;;;11.18;100.00
4167;BME280;2097;51.104;7.150;2022-10-31T06:00:27;99265.84;;;11.14;100.00
4167;BME280;2097;51.104;7.150;2022-10-31T06:02:58;99270.38;;;11.10;100.00
4167;BME280;2097;51.104;7.150;2022-10-31T06:05:25;99264.38;;;11.10;100.00
4167;BME280;2097;51.104;7.150;2022-10-31T06:07:52;99260.16;;;11.07;100.00
4167;BME280;2097;51.104;7.150;2022-10-31T06:10:18;99261.16;;;11.05;100.00
4167;BME280;2097;51.104;7.150;2022-10-31T06:12:46;99252.66;;;11.01;100.00
4167;BME280;2097;51.104;7.150;2022-10-31T06:15:13;99257.97;;;11.00;100.00
4167;BME280;2097;51.104;7.150;2022-10-31T06:17:41;99260.63;;;10.98;100.00
4167;BME280;2097;51.104;7.150;2022-10-31T06:20:09;99260.72;;;10.97;100.00
4167;BME280;2097;51.104;7.150;2022-10-31T06:22:36;99258.19;;;10.95;100.00
4167;BME280;2097;51.104;7.150;2022-10-31T06:25:03;99275.53;;;10.95;100.00
4167;BME280;2097;51.104;7.150;2022-10-31T06:27:30;99252.81;;;10.98;100.00
4167;BME280;2097;51.104;7.150;2022-10-31T06:29:56;99252.75;;;11.00;100.00
4167;BME280;2097;51.104;7.150;2022-10-31T06:32:23;99267.34;;;11.02;100.00
4167;BME280;2097;51.104;7.150;2022-10-31T06:34:51;99268.19;;;11.03;100.00
4167;BME280;2097;51.104;7.150;2022-10-31T06:37:18;99262.91;;;11.04;100.00
4167;BME280;2097;51.104;7.150;2022-10-31T06:39:44;99267.19;;;11.05;100.00
4167;BME280;2097;51.104;7.150;2022-10-31T06:42:11;99263.59;;;11.08;100.00
4167;BME280;2097;51.104;7.150;2022-10-31T06:44:38;99269.47;;;11.11;100.00
4167;BME280;2097;51.104;7.150;2022-10-31T06:47:05;99232.56;;;10.89;100.00
4167;BME280;2097;51.104;7.150;2022-10-31T06:49:32;99273.25;;;11.21;100.00
4167;BME280;2097;51.104;7.150;2022-10-31T06:52:00;99278.16;;;11.27;100.00
4167;BME280;2097;51.104;7.150;2022-10-31T06:54:27;99273.50;;;11.32;100.00
4167;BME280;2097;51.104;7.150;2022-10-31T06:56:53;99279.31;;;11.37;100.00
4167;BME280;2097;51.104;7.150;2022-10-31T06:59:20;99272.13;;;11.42;100.00
4167;BME280;2097;51.104;7.150;2022-10-31T07:01:47;99265.75;;;11.47;100.00
4167;BME280;2097;51.104;7.150;2022-10-31T07:04:13;99277.59;;;11.53;100.00
4167;BME280;2097;51.104;7.150;2022-10-31T07:06:40;99273.84;;;11.58;100.00
4167;BME280;2097;51.104;7.150;2022-10-31T07:09:08;99275.19;;;11.65;100.00
4167;BME280;2097;51.104;7.150;2022-10-31T07:11:35;99273.09;;;11.72;100.00
4167;BME280;2097;51.104;7.150;2022-10-31T07:14:02;99269.41;;;11.76;100.00
4167;BME280;2097;51.104;7.150;2022-10-31T07:16:29;99269.06;;;11.82;100.00
4167;BME280;2097;51.104;7.150;2022-10-31T07:18:55;99273.78;;;11.91;100.00
4167;BME280;2097;51.104;7.150;2022-10-31T07:21:22;99271.59;;;11.99;100.00
4167;BME280;2097;51.104;7.150;2022-10-31T07:23:49;99266.59;;;12.10;100.00
4167;BME280;2097;51.104;7.150;2022-10-31T07:26:17;99266.94;;;12.19;100.00
4167;BME280;2097;51.104;7.150;2022-10-31T07:28:45;99268.94;;;12.30;100.00
4167;BME280;2097;51.104;7.150;2022-10-31T07:31:12;99273.59;;;12.39;100.00
4167;BME280;2097;51.104;7.150;2022-10-31T07:33:39;99273.94;;;12.48;100.00
4167;BME280;2097;51.104;7.150;2022-10-31T07:36:06;99275.16;;;12.56;100.00
4167;BME280;2097;51.104;7.150;2022-10-31T07:38:33;99273.88;;;12.63;100.00
4167;BME280;2097;51.104;7.150;2022-10-31T07:41:00;99250.03;;;12.55;100.00
4167;BME280;2097;51.104;7.150;2022-10-31T07:43:28;99251.84;;;12.69;100.00
4167;BME280;2097;51.104;7.150;2022-10-31T07:45:54;99278.50;;;12.88;100.00
4167;BME280;2097;51.104;7.150;2022-10-31T07:48:21;99288.47;;;12.95;100.00
4167;BME280;2097;51.104;7.150;2022-10-31T07:50:48;99297.81;;;12.99;100.00
4167;BME280;2097;51.104;7.150;2022-10-31T07:53:15;99124.78;;;12.03;100.00
4167;BME280;2097;51.104;7.150;2022-10-31T07:55:43;99300.78;;;13.07;100.00
4167;BME280;2097;51.104;7.150;2022-10-31T07:58:12;99306.75;;;13.09;100.00
4167;BME280;2097;51.104;7.150;2022-10-31T08:00:41;99301.34;;;13.12;100.00
4167;BME280;2097;51.104;7.150;2022-10-31T08:03:10;99295.00;;;13.16;100.00
4167;BME280;2097;51.104;7.150;2022-10-31T08:05:37;99268.78;;;13.05;100.00
4167;BME280;2097;51.104;7.150;2022-10-31T08:08:06;99298.75;;;13.26;100.00
4167;BME280;2097;51.104;7.150;2022-10-31T08:10:33;99280.03;;;13.20;100.00
4167;BME280;2097;51.104;7.150;2022-10-31T08:13:02;99295.78;;;13.32;100.00
4167;BME280;2097;51.104;7.150;2022-10-31T08:15:29;99298.03;;;13.38;100.00
4167;BME280;2097;51.104;7.150;2022-10-31T08:17:57;99293.44;;;13.42;100.00
4167;BME280;2097;51.104;7.150;2022-10-31T08:20:24;99297.47;;;13.47;100.00
4167;BME280;2097;51.104;7.150;2022-10-31T08:22:55;99301.53;;;13.51;100.00
4167;BME280;2097;51.104;7.150;2022-10-31T08:25:22;99300.41;;;13.55;100.00
4167;BME280;2097;51.104;7.150;2022-10-31T08:27:50;99293.44;;;13.56;100.00
4167;BME280;2097;51.104;7.150;2022-10-31T08:30:17;99293.44;;;13.56;100.00
4167;BME280;2097;51.104;7.150;2022-10-31T08:32:44;99295.00;;;13.58;100.00
4167;BME280;2097;51.104;7.150;2022-10-31T08:35:12;99288.88;;;13.59;100.00
4167;BME280;2097;51.104;7.150;2022-10-31T08:37:39;99284.38;;;13.61;100.00
4167;BME280;2097;51.104;7.150;2022-10-31T08:40:06;99283.47;;;13.62;100.00
4167;BME280;2097;51.104;7.150;2022-10-31T08:42:33;99278.88;;;13.65;100.00
4167;BME280;2097;51.104;7.150;2022-10-31T08:45:00;99276.19;;;13.67;100.00
4167;BME280;2097;51.104;7.150;2022-10-31T08:47:27;99308.97;;;13.71;100.00
4167;BME280;2097;51.104;7.150;2022-10-31T08:49:54;99274.69;;;13.77;100.00
4167;BME280;2097;51.104;7.150;2022-10-31T08:52:24;99268.97;;;13.84;100.00
4167;BME280;2097;51.104;7.150;2022-10-31T08:54:51;99268.50;;;13.92;100.00
4167;BME280;2097;51.104;7.150;2022-10-31T08:57:18;99268.03;;;13.99;100.00
4167;BME280;2097;51.104;7.150;2022-10-31T08:59:44;99259.69;;;14.07;100.00
4167;BME280;2097;51.104;7.150;2022-10-31T09:02:11;99262.69;;;14.15;100.00
4167;BME280;2097;51.104;7.150;2022-10-31T09:04:38;99256.84;;;14.24;100.00
4167;BME280;2097;51.104;7.150;2022-10-31T09:07:05;99256.25;;;14.33;100.00
4167;BME280;2097;51.104;7.150;2022-10-31T09:09:33;99252.13;;;14.43;100.00
4167;BME280;2097;51.104;7.150;2022-10-31T09:11:59;99254.88;;;14.54;100.00
4167;BME280;2097;51.104;7.150;2022-10-31T09:14:26;99254.03;;;14.66;100.00
4167;BME280;2097;51.104;7.150;2022-10-31T09:16:53;99256.44;;;14.81;100.00
4167;BME280;2097;51.104;7.150;2022-10-31T09:19:20;99260.75;;;14.94;100.00
4167;BME280;2097;51.104;7.150;2022-10-31T09:21:47;99264.22;;;15.07;100.00
4167;BME280;2097;51.104;7.150;2022-10-31T09:24:14;99255.75;;;15.16;100.00
4167;BME280;2097;51.104;7.150;2022-10-31T09:26:42;99263.72;;;15.27;100.00
4167;BME280;2097;51.104;7.150;2022-10-31T09:29:08;99252.94;;;15.32;100.00
4167;BME280;2097;51.104;7.150;2022-10-31T09:31:41;99234.97;;;15.27;100.00
4167;BME280;2097;51.104;7.150;2022-10-31T09:34:22;99249.03;;;15.37;100.00
4167;BME280;2097;51.104;7.150;2022-10-31T09:36:54;99248.09;;;15.38;100.00
4167;BME280;2097;51.104;7.150;2022-10-31T09:39:21;99248.75;;;15.42;100.00
4167;BME280;2097;51.104;7.150;2022-10-31T09:42:04;99245.91;;;15.45;100.00
4167;BME280;2097;51.104;7.150;2022-10-31T09:44:46;99243.78;;;15.50;100.00
4167;BME280;2097;51.104;7.150;2022-10-31T09:47:24;99234.69;;;15.55;100.00
4167;BME280;2097;51.104;7.150;2022-10-31T09:50:07;99234.13;;;15.63;100.00
4167;BME280;2097;51.104;7.150;2022-10-31T09:52:41;99225.94;;;15.67;100.00
4167;BME280;2097;51.104;7.150;2022-10-31T09:55:15;99225.84;;;15.69;100.00
4167;BME280;2097;51.104;7.150;2022-10-31T09:57:45;99156.47;;;15.15;100.00
4167;BME280;2097;51.104;7.150;2022-10-31T10:00:17;99225.13;;;15.67;100.00
4167;BME280;2097;51.104;7.150;2022-10-31T10:02:47;99178.75;;;15.33;100.00
4167;BME280;2097;51.104;7.150;2022-10-31T10:05:19;99167.13;;;15.37;100.00
4167;BME280;2097;51.104;7.150;2022-10-31T10:07:55;99213.78;;;15.79;100.00
4167;BME280;2097;51.104;7.150;2022-10-31T10:10:32;99216.88;;;15.96;100.00
4167;BME280;2097;51.104;7.150;2022-10-31T10:13:14;99209.66;;;16.10;100.00
4167;BME280;2097;51.104;7.150;2022-10-31T10:15:54;99209.38;;;16.26;100.00
4167;BME280;2097;51.104;7.150;2022-10-31T10:18:27;99209.69;;;16.45;100.00
4167;BME280;2097;51.104;7.150;2022-10-31T10:21:05;99194.50;;;16.61;100.00
4167;BME280;2097;51.104;7.150;2022-10-31T10:23:45;99193.81;;;16.81;99.23
4167;BME280;2097;51.104;7.150;2022-10-31T10:26:17;99195.28;;;16.96;98.50
4167;BME280;2097;51.104;7.150;2022-10-31T10:28:48;99185.75;;;17.06;97.67
4167;BME280;2097;51.104;7.150;2022-10-31T10:31:21;99188.59;;;17.13;97.29
4167;BME280;2097;51.104;7.150;2022-10-31T10:33:59;99193.38;;;17.19;96.99
4167;BME280;2097;51.104;7.150;2022-10-31T10:36:32;99188.13;;;17.30;96.57
4167;BME280;2097;51.104;7.150;2022-10-31T10:39:04;99188.97;;;17.42;96.12
4167;BME280;2097;51.104;7.150;2022-10-31T10:41:34;99189.78;;;17.53;94.96
4167;BME280;2097;51.104;7.150;2022-10-31T10:44:07;99185.97;;;17.68;94.38
4167;BME280;2097;51.104;7.150;2022-10-31T10:46:49;99176.56;;;17.86;93.66
4167;BME280;2097;51.104;7.150;2022-10-31T10:49:38;99168.63;;;18.08;92.99
4167;BME280;2097;51.104;7.150;2022-10-31T10:52:19;99170.53;;;18.17;92.07
4167;BME280;2097;51.104;7.150;2022-10-31T10:54:59;99166.06;;;18.29;91.54
4167;BME280;2097;51.104;7.150;2022-10-31T10:57:46;99157.03;;;18.42;91.27
4167;BME280;2097;51.104;7.150;2022-10-31T11:00:22;99155.88;;;18.55;90.92
4167;BME280;2097;51.104;7.150;2022-10-31T11:02:50;99158.81;;;18.62;90.46
4167;BME280;2097;51.104;7.150;2022-10-31T11:05:23;99156.88;;;18.64;90.03
4167;BME280;2097;51.104;7.150;2022-10-31T11:07:50;99149.97;;;18.63;90.14
4167;BME280;2097;51.104;7.150;2022-10-31T11:10:17;99149.97;;;18.63;90.00
4167;BME280;2097;51.104;7.150;2022-10-31T11:12:56;99140.16;;;18.65;89.61
4167;BME280;2097;51.104;7.150;2022-10-31T11:15:26;99129.63;;;18.65;89.27
4167;BME280;2097;51.104;7.150;2022-10-31T11:17:55;99123.16;;;18.69;89.04
4167;BME280;2097;51.104;7.150;2022-10-31T11:20:29;99124.28;;;18.76;88.62
4167;BME280;2097;51.104;7.150;2022-10-31T11:23:17;98940.13;;;17.67;88.13
4167;BME280;2097;51.104;7.150;2022-10-31T11:25:52;99134.56;;;18.79;87.87
4167;BME280;2097;51.104;7.150;2022-10-31T11:28:21;99137.88;;;18.81;87.19
4167;BME280;2097;51.104;7.150;2022-10-31T11:30:51;99132.19;;;18.76;87.02
4167;BME280;2097;51.104;7.150;2022-10-31T11:33:23;99125.97;;;18.77;87.16
4167;BME280;2097;51.104;7.150;2022-10-31T11:35:52;99111.97;;;18.76;86.58
4167;BME280;2097;51.104;7.150;2022-10-31T11:38:21;99112.09;;;18.75;86.11
4167;BME280;2097;51.104;7.150;2022-10-31T11:40:54;99114.47;;;18.78;85.97
4167;BME280;2097;51.104;7.150;2022-10-31T11:43:22;99114.06;;;18.82;85.93
4167;BME280;2097;51.104;7.150;2022-10-31T11:45:51;99117.72;;;18.91;85.54
4167;BME280;2097;51.104;7.150;2022-10-31T11:48:19;99112.06;;;18.95;85.03
4167;BME280;2097;51.104;7.150;2022-10-31T11:50:49;99110.25;;;18.96;84.70
4167;BME280;2097;51.104;7.150;2022-10-31T11:53:18;99106.66;;;18.97;84.33
4167;BME280;2097;51.104;7.150;2022-10-31T11:55:47;99106.97;;;19.03;84.16
4167;BME280;2097;51.104;7.150;2022-10-31T11:58:20;99095.06;;;19.09;83.60
4167;BME280;2097;51.104;7.150;2022-10-31T12:00:49;99094.31;;;19.18;83.18
4167;BME280;2097;51.104;7.150;2022-10-31T12:03:28;99085.19;;;19.22;82.58
4167;BME280;2097;51.104;7.150;2022-10-31T12:06:01;99073.53;;;19.24;82.14
4167;BME280;2097;51.104;7.150;2022-10-31T12:08:31;99075.47;;;19.32;81.84
4167;BME280;2097;51.104;7.150;2022-10-31T12:11:02;99070.09;;;19.33;81.54
4167;BME280;2097;51.104;7.150;2022-10-31T12:13:34;99065.91;;;19.31;81.31
4167;BME280;2097;51.104;7.150;2022-10-31T12:16:11;99069.94;;;19.35;81.17
4167;BME280;2097;51.104;7.150;2022-10-31T12:18:51;99068.19;;;19.45;80.80
4167;BME280;2097;51.104;7.150;2022-10-31T12:21:36;99065.53;;;19.45;80.06
4167;BME280;2097;51.104;7.150;2022-10-31T12:24:13;99065.28;;;19.48;79.80
4167;BME280;2097;51.104;7.150;2022-10-31T12:26:50;99059.84;;;19.49;79.82
4167;BME280;2097;51.104;7.150;2022-10-31T12:29:33;99054.88;;;19.46;79.81
4167;BME280;2097;51.104;7.150;2022-10-31T12:32:18;99042.53;;;19.47;79.65
4167;BME280;2097;51.104;7.150;2022-10-31T12:35:06;99045.19;;;19.47;79.55
4167;BME280;2097;51.104;7.150;2022-10-31T12:37:51;99040.44;;;19.41;79.51
4167;BME280;2097;51.104;7.150;2022-10-31T12:40:35;99030.88;;;19.40;79.52
4167;BME280;2097;51.104;7.150;2022-10-31T12:43:15;99024.94;;;19.38;79.22
4167;BME280;2097;51.104;7.150;2022-10-31T12:45:52;99020.09;;;19.33;79.31
4167;BME280;2097;51.104;7.150;2022-10-31T12:48:44;99009.97;;;19.29;79.66
4167;BME280;2097;51.104;7.150;2022-10-31T12:51:19;99007.03;;;19.22;79.52
4167;BME280;2097;51.104;7.150;2022-10-31T12:54:04;99005.38;;;19.21;79.79
4167;BME280;2097;51.104;7.150;2022-10-31T12:56:44;98979.28;;;19.09;79.48
4167;BME280;2097;51.104;7.150;2022-10-31T12:59:19;98997.91;;;19.26;79.60
4167;BME280;2097;51.104;7.150;2022-10-31T13:01:49;98994.84;;;19.31;79.18
4167;BME280;2097;51.104;7.150;2022-10-31T13:04:28;98973.66;;;19.32;79.21
4167;BME280;2097;51.104;7.150;2022-10-31T13:07:02;98974.50;;;19.33;79.25
4167;BME280;2097;51.104;7.150;2022-10-31T13:09:38;98960.25;;;19.35;78.99
4167;BME280;2097;51.104;7.150;2022-10-31T13:12:10;98949.28;;;19.40;78.87
4167;BME280;2097;51.104;7.150;2022-10-31T13:14:39;98943.88;;;19.41;78.75
4167;BME280;2097;51.104;7.150;2022-10-31T13:17:25;98950.53;;;19.36;78.33
4167;BME280;2097;51.104;7.150;2022-10-31T13:19:56;98942.75;;;19.44;78.40
4167;BME280;2097;51.104;7.150;2022-10-31T13:22:31;98935.56;;;19.46;78.42
4167;BME280;2097;51.104;7.150;2022-10-31T13:25:04;98933.34;;;19.41;78.37
4167;BME280;2097;51.104;7.150;2022-10-31T13:27:44;98919.22;;;19.33;78.12
4167;BME280;2097;51.104;7.150;2022-10-31T13:30:15;98914.78;;;19.33;78.02